createdAt,value
2022-09-28T00:05:03.865Z,590
2022-09-28T00:20:03.614Z,587
2022-09-28T00:35:05.377Z,585
2022-09-28T00:55:02.591Z,582
2022-09-28T01:10:05.391Z,580
2022-09-28T01:25:04.557Z,578
2022-09-28T01:40:04.763Z,576
2022-09-28T01:55:03.394Z,574
2022-09-28T02:10:05.747Z,573
2022-09-28T02:25:03.817Z,572
2022-09-28T02:40:02.610Z,570
2022-09-28T02:55:06.426Z,569
2022-09-28T03:10:06.436Z,567
2022-09-28T03:25:02.460Z,564
2022-09-28T03:45:06.389Z,562
2022-09-28T04:00:02.427Z,561
2022-09-28T04:15:04.923Z,559
2022-09-28T04:30:02.554Z,558
2022-09-28T04:45:06.512Z,559
2022-09-28T05:00:04.506Z,560
2022-09-28T05:15:06.715Z,561
2022-09-28T05:30:03.671Z,564
2022-09-28T05:45:04.557Z,568
2022-09-28T06:00:05.899Z,570
2022-09-28T06:15:06.463Z,547
2022-09-28T06:30:06.398Z,525
2022-09-28T06:45:04.503Z,498
2022-09-28T07:00:05.728Z,471
2022-09-28T07:15:02.903Z,440
2022-09-28T07:30:05.619Z,434
2022-09-28T07:45:02.820Z,425
2022-09-28T08:00:06.617Z,419
2022-09-28T08:15:06.598Z,413
2022-09-28T08:30:05.567Z,411
2022-09-28T08:45:03.726Z,415
2022-09-28T09:00:05.509Z,416
2022-09-28T09:30:02.505Z,416
2022-09-28T10:00:04.609Z,415
2022-09-28T10:20:03.895Z,406
2022-09-28T10:35:02.651Z,405
2022-09-28T10:55:03.731Z,409
2022-09-28T11:25:05.452Z,409
2022-09-28T11:40:03.611Z,410
2022-09-28T12:00:02.669Z,409
2022-09-28T12:15:06.546Z,406
2022-09-28T12:30:04.553Z,406
2022-09-28T12:45:04.790Z,410
2022-09-28T13:00:06.481Z,423
2022-09-28T13:15:04.517Z,426
2022-09-28T13:30:05.836Z,426
2022-09-28T13:45:02.367Z,425
2022-09-28T14:00:05.756Z,421
2022-09-28T14:15:06.346Z,427
2022-09-28T14:30:04.350Z,467
2022-09-28T14:50:02.726Z,514
2022-09-28T15:05:02.635Z,562
2022-09-28T15:20:03.568Z,609
2022-09-28T15:40:06.519Z,638
2022-09-28T15:55:05.497Z,641
2022-09-28T16:10:06.529Z,639
2022-09-28T16:30:03.664Z,636
2022-09-28T16:45:06.363Z,633
2022-09-28T17:00:02.915Z,629
2022-09-28T17:15:04.895Z,626
2022-09-28T17:30:06.526Z,623
2022-09-28T17:45:02.539Z,621
2022-09-28T18:00:05.992Z,617
2022-09-28T18:20:03.598Z,613
2022-09-28T18:35:03.499Z,609
2022-09-28T18:50:05.039Z,604
2022-09-28T19:05:03.624Z,599
2022-09-28T19:20:06.600Z,595
2022-09-28T19:35:06.980Z,589
2022-09-28T19:50:03.957Z,585
2022-09-28T20:05:04.713Z,582
2022-09-28T20:20:02.903Z,579
2022-09-28T20:50:04.915Z,575
2022-09-28T21:10:05.819Z,574
2022-09-28T21:25:04.921Z,571
2022-09-28T21:40:02.536Z,569
2022-09-28T22:00:03.816Z,567
2022-09-28T22:15:05.608Z,565
2022-09-28T22:30:05.764Z,563
2022-09-28T22:45:03.886Z,561
2022-09-28T23:00:04.658Z,560
2022-09-28T23:30:05.407Z,560
2022-09-28T23:45:05.459Z,559
